Time;durP1;ratioP1;P1;durP2;ratioP2;P2;SDS_P1;SDS_P2;PMS_P1;PMS_P2;Temp;Humidity;BMP_temperature;BMP_pressure;BME280_temperature;BME280_humidity;BME280_pressure;Samples;Min_cycle;Max_cycle;Signal;HPM_P1;HPM_P2
2022/07/26 00:01:14;;;;;;;12.93;9.90;;;;;;;22.97;51.03;95259.06;5084651;28;20040;-80
2022/07/26 00:03:40;;;;;;;12.82;10.75;;;;;;;22.86;51.79;95251.84;5087645;28;20028;-80
2022/07/26 00:06:05;;;;;;;12.13;9.18;;;;;;;22.88;51.38;95250.50;5089074;28;20024;-80
2022/07/26 00:08:30;;;;;;;11.30;9.38;;;;;;;22.90;51.47;95253.78;5070166;28;20016;-80
2022/07/26 00:10:56;;;;;;;12.50;9.95;;;;;;;22.89;51.72;95248.59;5089731;28;20016;-80
2022/07/26 00:13:21;;;;;;;10.93;9.77;;;;;;;22.86;51.67;95249.13;5087962;28;20024;-80
2022/07/26 00:15:47;;;;;;;14.65;10.10;;;;;;;22.82;52.35;95251.53;5070769;28;20375;-80
2022/07/26 00:18:12;;;;;;;12.15;9.90;;;;;;;22.84;52.05;95244.72;5053405;28;20020;-80
2022/07/26 00:20:38;;;;;;;12.43;10.82;;;;;;;22.80;52.22;95254.53;5070123;28;20027;-80
2022/07/26 00:23:03;;;;;;;13.48;9.98;;;;;;;22.83;52.45;95243.06;5088471;28;20039;-80
2022/07/26 00:25:29;;;;;;;11.15;10.05;;;;;;;22.80;51.96;95246.31;5088237;28;20025;-80
2022/07/26 00:27:54;;;;;;;11.55;9.88;;;;;;;22.81;52.02;95239.75;5088873;28;20044;-80
2022/07/26 00:30:20;;;;;;;22.40;10.23;;;;;;;22.75;51.73;95246.28;5087222;28;20032;-80
2022/07/26 00:32:45;;;;;;;13.20;9.63;;;;;;;22.73;51.50;95240.25;5088999;28;20028;-79
2022/07/26 00:35:11;;;;;;;11.75;9.63;;;;;;;22.67;51.61;95233.06;5052710;28;20073;-80
2022/07/26 00:37:36;;;;;;;11.93;10.60;;;;;;;22.67;51.65;95236.63;5070012;28;20031;-80
2022/07/26 00:40:03;;;;;;;12.20;10.00;;;;;;;22.54;52.46;95235.13;5053022;28;20036;-79
2022/07/26 00:42:28;;;;;;;13.73;10.52;;;;;;;22.45;52.31;95237.50;5069960;28;20028;-80
2022/07/26 00:44:54;;;;;;;12.55;10.63;;;;;;;22.37;53.08;95234.41;5070477;28;20032;-80
2022/07/26 00:47:19;;;;;;;13.23;10.68;;;;;;;22.31;52.77;95239.81;5087181;28;20133;-80
2022/07/26 00:49:44;;;;;;;13.85;11.27;;;;;;;22.17;53.66;95236.66;5070755;28;20490;-80
2022/07/26 00:52:11;;;;;;;12.70;10.98;;;;;;;22.16;53.80;95239.63;5087873;28;20367;-78
2022/07/26 00:54:37;;;;;;;12.50;11.20;;;;;;;22.16;53.32;95245.09;5070784;28;20016;-80
2022/07/26 00:57:03;;;;;;;14.98;11.73;;;;;;;22.15;53.83;95246.19;5053140;28;20035;-80
2022/07/26 00:59:29;;;;;;;13.50;10.25;;;;;;;22.13;53.68;95245.63;5069881;28;20039;-80
2022/07/26 01:01:54;;;;;;;12.23;10.93;;;;;;;21.97;54.27;95242.72;5087869;28;20470;-80
2022/07/26 01:04:19;;;;;;;12.68;10.77;;;;;;;22.10;54.23;95238.78;5052429;28;20036;-80
2022/07/26 01:06:46;;;;;;;16.23;10.80;;;;;;;22.07;53.65;95237.34;5069955;28;20085;-80
2022/07/26 01:09:11;;;;;;;11.90;10.60;;;;;;;22.05;53.44;95234.06;5068763;28;20028;-81
2022/07/26 01:11:37;;;;;;;13.95;10.55;;;;;;;22.02;53.51;95240.03;5053727;28;20027;-80
2022/07/26 01:14:02;;;;;;;13.02;10.80;;;;;;;21.92;54.19;95240.75;5068254;28;20563;-80
2022/07/26 01:16:28;;;;;;;12.75;10.77;;;;;;;21.97;54.17;95245.44;5087718;28;20031;-80
2022/07/26 01:18:53;;;;;;;12.50;10.48;;;;;;;21.86;54.49;95239.84;5087279;28;20028;-80
2022/07/26 01:21:20;;;;;;;12.18;10.93;;;;;;;21.93;54.40;95245.13;5068839;28;20024;-81
2022/07/26 01:23:46;;;;;;;14.13;11.35;;;;;;;21.76;54.51;95239.69;5087657;28;20020;-80
2022/07/26 01:26:11;;;;;;;14.30;11.07;;;;;;;21.79;54.63;95236.50;5087166;28;20035;-79
2022/07/26 01:28:37;;;;;;;12.13;10.30;;;;;;;21.86;54.32;95233.56;5087328;28;20044;-80
2022/07/26 01:31:06;;;;;;;13.20;11.73;;;;;;;21.87;54.80;95237.94;5051529;28;20051;-80
2022/07/26 01:33:32;;;;;;;13.65;10.95;;;;;;;21.83;54.27;95231.31;5053031;28;20028;-79
2022/07/26 01:35:58;;;;;;;12.30;11.00;;;;;;;21.89;54.56;95230.34;5051955;28;20031;-79
2022/07/26 01:38:24;;;;;;;12.90;11.05;;;;;;;21.81;54.37;95228.84;5052430;28;20968;-80
2022/07/26 01:40:49;;;;;;;12.25;10.98;;;;;;;21.89;53.92;95229.50;5087293;28;20024;-79
2022/07/26 01:43:15;;;;;;;14.48;11.27;;;;;;;21.84;54.34;95224.81;5086978;28;20394;-79
2022/07/26 01:45:40;;;;;;;12.27;10.98;;;;;;;21.89;53.67;95218.59;5087124;28;20028;-80
2022/07/26 01:48:07;;;;;;;12.13;10.65;;;;;;;21.77;54.57;95227.72;5068384;28;20516;-79
2022/07/26 01:50:33;;;;;;;15.73;11.63;;;;;;;21.77;54.91;95229.59;5069441;28;20054;-80
2022/07/26 01:52:58;;;;;;;13.90;10.95;;;;;;;21.85;54.40;95227.28;5068089;28;20048;-80
2022/07/26 01:55:24;;;;;;;12.70;11.23;;;;;;;21.89;54.42;95227.59;5087275;28;20032;-79
2022/07/26 01:57:49;;;;;;;13.30;11.90;;;;;;;21.89;54.65;95229.50;5067862;28;20031;-81
2022/07/26 02:00:15;;;;;;;13.90;11.43;;;;;;;21.83;54.40;95232.16;5051797;28;20035;-80
2022/07/26 02:02:40;;;;;;;13.02;11.65;;;;;;;21.78;54.56;95234.81;5068147;28;20115;-80
2022/07/26 02:05:06;;;;;;;13.13;11.30;;;;;;;21.77;54.77;95233.19;5068270;28;20043;-80
2022/07/26 02:07:37;;;;;;;12.05;10.68;;;;;;;21.80;54.74;95234.56;5068888;28;20523;-80
2022/07/26 02:10:02;;;;;;;12.85;11.32;;;;;;;21.85;54.88;95237.38;5067573;28;20430;-81
2022/07/26 02:12:28;;;;;;;12.27;11.02;;;;;;;21.82;54.56;95235.16;5069210;28;20023;-80
2022/07/26 02:14:53;;;;;;;14.65;12.25;;;;;;;21.79;54.90;95239.22;5085826;28;20043;-80
2022/07/26 02:17:19;;;;;;;14.40;11.88;;;;;;;21.75;54.88;95248.94;5068853;28;20028;-79
2022/07/26 02:19:44;;;;;;;14.43;11.90;;;;;;;21.72;55.33;95246.72;5090924;28;20102;-81
2022/07/26 02:22:10;;;;;;;15.45;12.05;;;;;;;21.69;55.50;95241.78;5068107;28;20032;-79
2022/07/26 02:24:36;;;;;;;13.88;12.40;;;;;;;21.66;55.79;95240.38;5086445;28;20043;-80
2022/07/26 02:27:01;;;;;;;14.10;11.60;;;;;;;21.70;55.57;95243.44;5085829;28;20027;-80
2022/07/26 02:29:27;;;;;;;13.85;12.15;;;;;;;21.74;55.67;95244.56;5068697;28;20047;-80
2022/07/26 02:31:53;;;;;;;14.25;11.48;;;;;;;21.74;54.72;95245.41;5085103;28;20024;-79
2022/07/26 02:34:18;;;;;;;15.30;10.52;;;;;;;21.70;54.60;95241.53;5086702;28;20024;-80
2022/07/26 02:36:44;;;;;;;13.40;11.60;;;;;;;21.71;54.80;95239.63;5050981;28;20020;-80
2022/07/26 02:39:09;;;;;;;16.85;12.57;;;;;;;21.72;55.00;95244.00;5086351;28;20028;-79
2022/07/26 02:41:35;;;;;;;17.30;12.45;;;;;;;21.69;54.82;95242.59;5051318;28;20020;-79
2022/07/26 02:44:00;;;;;;;13.63;11.80;;;;;;;21.69;54.76;95244.50;5085369;28;20027;-81
2022/07/26 02:46:26;;;;;;;15.13;11.82;;;;;;;21.56;54.83;95260.16;5068328;28;20028;-80
2022/07/26 02:48:51;;;;;;;12.75;11.20;;;;;;;21.47;54.55;95253.50;5066855;28;20506;-79
2022/07/26 02:51:16;;;;;;;15.43;11.82;;;;;;;21.32;55.04;95256.81;5068669;28;20012;-80
2022/07/26 02:53:42;;;;;;;15.18;12.05;;;;;;;21.33;55.14;95256.56;5066811;28;20035;-80
2022/07/26 02:56:07;;;;;;;14.40;11.35;;;;;;;21.40;55.03;95250.94;5086118;28;20028;-80
2022/07/26 02:58:33;;;;;;;15.95;12.45;;;;;;;21.35;55.40;95248.97;5050119;28;20085;-80
2022/07/26 03:00:58;;;;;;;13.65;11.52;;;;;;;21.39;55.36;95251.19;5067189;28;20058;-80
2022/07/26 03:03:24;;;;;;;13.38;11.63;;;;;;;21.38;55.00;95260.47;5067557;28;20039;-80
2022/07/26 03:05:49;;;;;;;16.65;11.80;;;;;;;21.20;55.22;95251.47;5066964;28;20039;-80
2022/07/26 03:08:14;;;;;;;15.80;11.75;;;;;;;21.22;54.85;95252.03;5068172;28;20434;-80
2022/07/26 03:10:40;;;;;;;14.32;11.25;;;;;;;21.16;55.14;95259.31;5066675;28;20410;-79
2022/07/26 03:13:06;;;;;;;14.10;10.55;;;;;;;21.16;55.14;95263.94;5086418;28;20026;-82
2022/07/26 03:15:31;;;;;;;16.08;12.15;;;;;;;21.21;55.22;95266.75;5050019;28;20024;-82
2022/07/26 03:17:56;;;;;;;12.57;10.63;;;;;;;21.18;55.27;95262.63;5085899;28;20028;-83
2022/07/26 03:20:22;;;;;;;14.77;11.73;;;;;;;21.14;55.34;95266.06;5067006;28;20482;-85
2022/07/26 03:22:47;;;;;;;14.95;11.52;;;;;;;21.07;55.98;95263.53;5050959;28;20031;-78
2022/07/26 03:25:13;;;;;;;13.15;11.75;;;;;;;21.12;55.14;95266.31;5067534;28;20184;-82
2022/07/26 03:27:38;;;;;;;14.40;10.32;;;;;;;21.09;55.51;95275.00;5050108;28;20044;-80
2022/07/26 03:30:05;;;;;;;13.75;11.95;;;;;;;21.07;55.47;95263.53;5068029;28;20035;-80
2022/07/26 03:32:30;;;;;;;14.77;10.95;;;;;;;21.15;55.48;95265.03;5068102;28;20321;-80
2022/07/26 03:34:55;;;;;;;15.27;11.65;;;;;;;21.04;55.73;95270.28;5086711;28;20031;-80
2022/07/26 03:37:22;;;;;;;15.57;12.57;;;;;;;20.99;55.63;95267.47;5067482;28;20020;-80
2022/07/26 03:39:47;;;;;;;16.55;11.98;;;;;;;21.01;55.36;95272.72;5089946;28;20024;-81
2022/07/26 03:42:13;;;;;;;14.48;11.90;;;;;;;21.00;55.23;95269.16;5054650;28;20095;-81
2022/07/26 03:44:38;;;;;;;15.45;12.23;;;;;;;21.03;55.61;95265.94;5070968;28;20077;-80
2022/07/26 03:47:04;;;;;;;13.57;12.18;;;;;;;20.98;55.11;95276.75;5089697;28;20035;-79
2022/07/26 03:49:29;;;;;;;17.30;12.82;;;;;;;20.97;55.47;95275.91;5053993;28;20418;-79
2022/07/26 03:51:54;;;;;;;13.48;11.65;;;;;;;21.01;55.68;95265.34;5071887;28;20023;-79
2022/07/26 03:54:21;;;;;;;13.73;12.23;;;;;;;21.06;55.60;95267.31;5088088;28;20047;-81
2022/07/26 03:56:46;;;;;;;15.70;12.20;;;;;;;20.95;55.56;95272.63;5071466;28;20035;-81
2022/07/26 03:59:12;;;;;;;16.10;12.48;;;;;;;20.98;55.70;95263.94;5036636;28;20032;-80
2022/07/26 04:01:41;;;;;;;17.33;12.77;;;;;;;20.98;55.84;95274.84;5070471;28;20039;-80
2022/07/26 04:04:10;;;;;;;17.20;12.10;;;;;;;20.99;55.59;95268.31;5071617;28;20681;-80
2022/07/26 04:06:36;;;;;;;15.50;12.70;;;;;;;21.07;55.58;95266.25;5088072;28;20517;-79
2022/07/26 04:09:01;;;;;;;20.30;12.85;;;;;;;21.08;55.58;95259.72;5054790;28;20059;-80
2022/07/26 04:11:27;;;;;;;15.20;12.63;;;;;;;21.12;55.58;95267.16;5087556;28;20027;-79
2022/07/26 04:13:52;;;;;;;14.68;12.90;;;;;;;21.12;55.80;95261.72;5089608;28;20028;-80
2022/07/26 04:16:18;;;;;;;16.75;12.25;;;;;;;21.16;55.87;95264.78;5052879;28;20468;-80
2022/07/26 04:18:43;;;;;;;14.75;12.73;;;;;;;21.19;55.63;95260.72;5070660;28;20028;-80
2022/07/26 04:21:09;;;;;;;15.88;11.98;;;;;;;21.21;55.21;95258.56;5070001;28;20040;-80
2022/07/26 04:23:34;;;;;;;15.10;12.70;;;;;;;21.21;55.53;95259.41;5069590;28;20020;-79
2022/07/26 04:26:00;;;;;;;14.20;12.70;;;;;;;21.23;55.72;95261.88;5070760;28;20024;-80
2022/07/26 04:28:27;;;;;;;18.05;13.00;;;;;;;21.34;55.71;95262.84;5068841;28;20052;-79
2022/07/26 04:30:56;;;;;;;19.73;13.75;;;;;;;21.42;55.14;95253.41;5054944;28;20427;-80
2022/07/26 04:33:21;;;;;;;15.52;13.02;;;;;;;21.44;55.48;95254.81;5069218;28;20237;-80
2022/07/26 04:35:47;;;;;;;16.23;13.30;;;;;;;21.62;54.83;95250.13;5054007;28;20016;-80
2022/07/26 04:38:12;;;;;;;14.13;12.45;;;;;;;21.72;55.01;95247.56;5069846;28;20410;-80
2022/07/26 04:40:38;;;;;;;16.30;13.75;;;;;;;21.80;55.26;95251.78;5069456;28;20032;-80
2022/07/26 04:43:03;;;;;;;18.65;12.80;;;;;;;21.94;54.66;95256.88;5088301;28;20107;-81
2022/07/26 04:45:29;;;;;;;20.25;13.60;;;;;;;22.06;55.05;95254.84;5087141;28;20080;-81
2022/07/26 04:47:54;;;;;;;16.10;13.15;;;;;;;22.16;55.10;95251.41;5053963;28;20020;-80
2022/07/26 04:50:20;;;;;;;18.05;14.05;;;;;;;22.30;54.59;95254.56;5067313;28;20399;-81
2022/07/26 04:52:46;;;;;;;17.67;14.75;;;;;;;22.38;54.51;95257.91;5037188;28;20036;-80
2022/07/26 04:55:12;;;;;;;15.77;14.02;;;;;;;22.47;54.81;95256.38;5069058;28;20028;-80
2022/07/26 04:57:37;;;;;;;16.33;14.02;;;;;;;22.54;54.35;95265.19;5069836;28;20023;-81
2022/07/26 05:00:04;;;;;;;18.85;14.13;;;;;;;22.65;54.33;95259.84;5069638;28;20379;-81
2022/07/26 05:02:30;;;;;;;15.98;14.18;;;;;;;22.70;53.99;95259.88;5052609;28;20036;-80
2022/07/26 05:04:55;;;;;;;18.73;14.30;;;;;;;22.74;53.95;95252.84;5069975;28;20039;-82
2022/07/26 05:07:20;;;;;;;17.55;13.85;;;;;;;22.90;53.49;95263.91;5068885;28;20051;-81
2022/07/26 05:09:46;;;;;;;17.67;14.00;;;;;;;22.95;52.92;95255.75;5088126;28;20028;-81
2022/07/26 05:12:11;;;;;;;19.48;14.88;;;;;;;23.00;53.27;95253.06;5068240;28;20495;-80
2022/07/26 05:14:37;;;;;;;17.08;13.93;;;;;;;23.02;53.07;95244.59;5087899;28;20089;-80
2022/07/26 05:17:03;;;;;;;15.98;13.40;;;;;;;23.24;52.98;95236.28;5087088;28;20024;-80
2022/07/26 05:19:28;;;;;;;16.75;13.60;;;;;;;23.45;53.04;95241.91;5052704;28;20016;-80
2022/07/26 05:21:54;;;;;;;20.85;14.35;;;;;;;23.36;52.66;95254.41;5069109;28;20039;-80
2022/07/26 05:24:19;;;;;;;17.67;12.85;;;;;;;23.59;52.93;95245.00;5086715;28;20024;-81
2022/07/26 05:26:45;;;;;;;23.67;14.57;;;;;;;23.66;52.50;95247.50;5069457;28;20024;-82
2022/07/26 05:29:10;;;;;;;16.38;13.55;;;;;;;23.74;52.09;95244.28;5067651;28;20476;-79
2022/07/26 05:31:35;;;;;;;13.98;12.13;;;;;;;23.99;52.54;95250.94;5069656;28;20040;-81
2022/07/26 05:34:02;;;;;;;13.50;11.20;;;;;;;23.95;51.08;95250.69;5068143;28;20031;-82
2022/07/26 05:36:28;;;;;;;12.70;11.43;;;;;;;24.01;50.92;95248.78;5069589;28;20020;-81
2022/07/26 05:38:53;;;;;;;13.57;12.18;;;;;;;24.00;51.09;95249.88;5068151;28;20047;-82
2022/07/26 05:41:19;;;;;;;12.63;11.38;;;;;;;24.25;50.87;95250.25;5068499;28;20036;-81
2022/07/26 05:43:44;;;;;;;17.45;11.75;;;;;;;24.43;50.21;95244.28;5086784;28;20028;-80
2022/07/26 05:46:10;;;;;;;16.42;12.57;;;;;;;24.11;51.34;95236.19;5086305;28;20451;-82
2022/07/26 05:48:36;;;;;;;14.15;12.75;;;;;;;24.49;51.28;95236.06;5087335;28;20081;-80
2022/07/26 05:51:01;;;;;;;18.10;12.77;;;;;;;24.71;49.91;95238.56;5086034;28;20099;-81
2022/07/26 05:53:27;;;;;;;20.65;12.48;;;;;;;24.77;49.67;95239.38;5087174;28;20028;-80
2022/07/26 05:55:52;;;;;;;18.45;12.55;;;;;;;24.68;49.37;95228.16;5085963;28;20024;-81
2022/07/26 05:58:18;;;;;;;22.67;14.43;;;;;;;24.46;49.68;95234.69;5086676;28;20028;-80
2022/07/26 06:00:43;;;;;;;18.95;13.80;;;;;;;24.47;49.95;95235.50;5085608;28;20028;-81
2022/07/26 06:03:30;;;;;;;19.33;13.48;;;;;;;24.60;50.00;95228.69;5067852;28;20035;-80
2022/07/26 06:05:55;;;;;;;16.25;13.35;;;;;;;24.86;49.64;95225.97;5086310;28;20119;-81
2022/07/26 06:08:22;;;;;;;14.80;13.30;;;;;;;25.17;49.14;95223.22;5067128;28;20024;-81
2022/07/26 06:10:47;;;;;;;17.20;13.00;;;;;;;25.32;49.09;95225.16;5052248;28;20025;-81
2022/07/26 06:13:13;;;;;;;14.98;13.18;;;;;;;25.33;48.81;95220.50;5067523;28;20056;-81
2022/07/26 06:15:38;;;;;;;18.23;13.73;;;;;;;25.49;47.94;95213.06;5051484;28;20422;-81
2022/07/26 06:18:04;;;;;;;16.38;12.63;;;;;;;25.71;47.28;95209.16;5068015;28;20028;-82
2022/07/26 06:20:30;;;;;;;17.45;14.20;;;;;;;25.83;47.38;95206.13;5051033;28;20028;-81
2022/07/26 06:22:57;;;;;;;19.55;14.05;;;;;;;25.67;47.43;95206.97;5068363;28;20119;-81
2022/07/26 06:25:23;;;;;;;16.67;12.98;;;;;;;25.65;47.41;95211.91;5084991;28;20110;-82
2022/07/26 06:27:49;;;;;;;19.73;15.25;;;;;;;25.51;47.60;95208.91;5035564;28;20552;-82
2022/07/26 06:30:14;;;;;;;29.58;14.70;;;;;;;25.60;47.41;95208.34;5066929;28;20056;-81
2022/07/26 06:32:43;;;;;;;16.77;12.65;;;;;;;25.92;47.23;95216.22;5086428;28;20028;-81
2022/07/26 06:35:11;;;;;;;18.98;13.05;;;;;;;26.03;46.66;95205.19;5067853;28;20502;-81
2022/07/26 06:37:37;;;;;;;15.13;12.75;;;;;;;26.09;46.97;95203.22;5085453;28;20036;-82
2022/07/26 06:40:05;;;;;;;21.42;13.30;;;;;;;25.96;46.59;95205.50;5050956;28;20424;-83
2022/07/26 06:42:31;;;;;;;15.63;12.57;;;;;;;26.05;46.91;95203.78;5067355;28;20031;-80
2022/07/26 06:44:57;;;;;;;17.17;13.48;;;;;;;26.21;46.96;95206.50;5068159;28;20403;-82
2022/07/26 06:47:23;;;;;;;22.65;14.07;;;;;;;25.70;47.56;95208.34;5066835;28;20028;-81
2022/07/26 06:49:48;;;;;;;18.23;13.30;;;;;;;25.76;47.32;95200.91;5067836;28;20016;-82
2022/07/26 06:52:14;;;;;;;22.17;14.60;;;;;;;26.19;46.56;95199.63;5049878;28;20035;-81
2022/07/26 06:54:39;;;;;;;25.45;14.48;;;;;;;26.20;47.05;95202.06;5067347;28;20028;-81
2022/07/26 06:57:05;;;;;;;24.38;13.55;;;;;;;25.78;47.59;95188.53;5066935;28;20036;-82
2022/07/26 06:59:33;;;;;;;21.50;13.80;;;;;;;25.97;47.40;95190.66;5085798;28;20024;-81
2022/07/26 07:02:00;;;;;;;22.30;13.55;;;;;;;26.36;47.82;95193.78;5075554;28;20053;-82
2022/07/26 07:04:30;;;;;;;16.95;13.77;;;;;;;26.57;47.02;95196.41;5084411;28;20052;-82
2022/07/26 07:06:56;;;;;;;16.55;12.73;;;;;;;26.82;47.25;95187.13;5051791;28;20032;-82
2022/07/26 07:09:22;;;;;;;17.38;12.98;;;;;;;26.98;45.90;95192.50;5050139;28;20047;-81
2022/07/26 07:11:48;;;;;;;15.63;12.32;;;;;;;27.17;45.19;95192.63;5084918;28;20108;-81
2022/07/26 07:14:14;;;;;;;14.93;12.55;;;;;;;27.32;45.71;95194.44;5067416;28;20528;-81
2022/07/26 07:16:40;;;;;;;17.48;12.10;;;;;;;27.28;45.66;95194.19;5055384;28;20027;-81
2022/07/26 07:19:05;;;;;;;18.67;12.50;;;;;;;27.38;45.70;95189.69;5066989;28;20024;-83
2022/07/26 07:21:32;;;;;;;15.70;12.02;;;;;;;27.40;45.56;95190.22;5066245;28;20020;-81
2022/07/26 07:23:58;;;;;;;17.90;12.85;;;;;;;27.07;45.58;95187.25;5068027;28;20053;-81
2022/07/26 07:26:24;;;;;;;15.82;12.43;;;;;;;27.05;46.12;95192.22;5065739;28;20032;-82
2022/07/26 07:28:49;;;;;;;19.88;12.77;;;;;;;26.98;46.21;95196.09;5067723;28;20178;-82
2022/07/26 07:31:14;;;;;;;17.27;12.68;;;;;;;26.85;45.98;95196.72;5066380;28;20054;-83
2022/07/26 07:33:40;;;;;;;19.13;13.05;;;;;;;26.98;46.14;95190.59;5050147;28;20502;-81
2022/07/26 07:36:06;;;;;;;14.82;12.73;;;;;;;26.95;45.72;95193.91;5066777;28;20434;-84
2022/07/26 07:38:31;;;;;;;19.38;12.20;;;;;;;27.19;45.84;95184.09;5084511;28;20479;-82
2022/07/26 07:40:56;;;;;;;15.60;12.25;;;;;;;27.19;45.92;95179.41;5085552;28;20055;-82
2022/07/26 07:43:22;;;;;;;13.13;11.70;;;;;;;27.33;46.10;95175.97;5083562;28;20039;-81
2022/07/26 07:45:47;;;;;;;16.02;12.15;;;;;;;27.45;45.35;95181.09;5085864;28;20097;-82
2022/07/26 07:48:13;;;;;;;13.77;12.05;;;;;;;27.34;45.04;95172.91;5083690;28;20032;-81
2022/07/26 07:50:38;;;;;;;14.43;11.82;;;;;;;27.47;44.46;95174.16;5085177;28;20097;-81
2022/07/26 07:53:03;;;;;;;12.57;11.27;;;;;;;27.74;45.14;95178.31;5066490;28;20079;-82
2022/07/26 07:55:29;;;;;;;13.48;11.13;;;;;;;27.89;44.12;95182.00;5084291;28;21168;-82
2022/07/26 07:57:54;;;;;;;26.58;12.63;;;;;;;27.98;43.34;95177.47;5085170;28;20472;-81
2022/07/26 08:00:20;;;;;;;15.27;12.70;;;;;;;28.14;43.74;95180.00;5083683;28;20028;-84
2022/07/26 08:02:45;;;;;;;36.55;14.02;;;;;;;28.26;42.88;95165.81;5050543;28;20024;-82
2022/07/26 08:05:11;;;;;;;34.92;13.40;;;;;;;28.39;42.68;95167.00;5065482;28;20082;-82
2022/07/26 08:07:37;;;;;;;12.88;11.13;;;;;;;28.53;42.03;95171.78;5067279;28;20390;-82
2022/07/26 08:10:03;;;;;;;15.30;12.68;;;;;;;28.49;41.26;95164.09;5065798;28;20502;-81
2022/07/26 08:12:28;;;;;;;14.98;12.32;;;;;;;28.39;41.89;95161.47;5049666;28;20395;-81
2022/07/26 08:14:54;;;;;;;14.55;12.55;;;;;;;28.05;42.11;95154.22;5066589;28;20020;-81
2022/07/26 08:17:19;;;;;;;16.77;11.93;;;;;;;27.93;42.76;95158.25;5084022;28;20031;-82
2022/07/26 08:19:45;;;;;;;17.63;12.45;;;;;;;27.99;43.31;95154.28;5083751;28;20482;-81
2022/07/26 08:22:10;;;;;;;19.05;13.13;;;;;;;28.29;42.74;95150.59;5083711;28;20505;-82
2022/07/26 08:24:35;;;;;;;16.90;12.27;;;;;;;28.34;42.52;95153.31;5087775;28;20454;-82
2022/07/26 08:27:02;;;;;;;15.38;11.85;;;;;;;28.34;42.25;95142.28;5087460;28;20074;-81
2022/07/26 08:29:28;;;;;;;14.80;11.70;;;;;;;28.35;43.05;95135.63;5088503;28;20069;-80
2022/07/26 08:31:53;;;;;;;14.50;12.25;;;;;;;28.47;43.20;95144.25;5053060;28;20417;-81
2022/07/26 08:34:20;;;;;;;14.20;12.32;;;;;;;28.59;41.99;95140.22;5088022;28;20036;-82
2022/07/26 08:36:46;;;;;;;18.50;11.38;;;;;;;28.56;41.35;95138.91;5088141;28;20063;-82
2022/07/26 08:39:11;;;;;;;15.25;12.20;;;;;;;28.57;41.18;95131.44;5052457;28;20036;-81
2022/07/26 08:41:39;;;;;;;17.58;12.20;;;;;;;28.32;41.65;95130.72;5070266;28;20028;-81
2022/07/26 08:44:09;;;;;;;15.77;11.48;;;;;;;28.62;42.07;95125.84;5069149;28;20035;-82
2022/07/26 08:46:36;;;;;;;12.70;11.35;;;;;;;28.78;41.02;95136.63;5053844;28;20505;-81
2022/07/26 08:49:01;;;;;;;15.88;12.30;;;;;;;28.97;40.74;95120.06;5087514;28;20020;-82
2022/07/26 08:51:27;;;;;;;15.18;11.90;;;;;;;29.07;41.00;95127.31;5053041;28;20039;-81
2022/07/26 08:53:54;;;;;;;13.20;11.35;;;;;;;29.14;40.80;95125.00;5087966;28;20024;-81
2022/07/26 08:56:19;;;;;;;13.30;11.30;;;;;;;29.15;40.63;95126.63;5069323;28;20081;-82
2022/07/26 08:58:44;;;;;;;18.75;12.52;;;;;;;29.40;40.53;95124.50;5069958;28;20039;-83
2022/07/26 09:01:13;;;;;;;16.38;11.52;;;;;;;29.48;40.43;95129.31;5086628;28;20028;-83
2022/07/26 09:03:40;;;;;;;12.63;11.32;;;;;;;29.53;40.10;95117.34;5054359;28;20020;-81
2022/07/26 09:06:21;;;;;;;12.02;10.65;;;;;;;29.53;39.14;95122.06;5035399;28;20060;-81
2022/07/26 09:08:48;;;;;;;18.15;11.13;;;;;;;29.59;40.30;95115.31;5052864;28;20020;-82
2022/07/26 09:11:23;;;;;;;14.52;10.98;;;;;;;29.72;39.25;95108.16;5069766;28;20036;-81
2022/07/26 09:13:50;;;;;;;13.55;10.93;;;;;;;29.85;39.10;95112.03;5086493;28;20020;-82
2022/07/26 09:16:15;;;;;;;14.25;10.25;;;;;;;29.82;38.48;95109.88;5053604;28;20038;-83
2022/07/26 09:18:41;;;;;;;15.18;10.45;;;;;;;29.94;39.02;95118.47;5086037;28;20024;-81
2022/07/26 09:21:06;;;;;;;19.23;11.20;;;;;;;30.16;38.50;95122.41;5088468;28;20036;-82
2022/07/26 09:23:38;;;;;;;19.67;11.35;;;;;;;30.18;38.06;95113.81;5068467;28;20069;-83
2022/07/26 09:26:03;;;;;;;;;;;;;;;30.13;36.75;95103.69;5087889;28;20592;-82
2022/07/26 09:28:30;;;;;;;14.70;10.60;;;;;;;29.89;37.06;95104.75;5087696;28;19942;-82
2022/07/26 09:31:00;;;;;;;13.63;10.52;;;;;;;29.92;36.34;95103.31;5086322;28;20100;-82
2022/07/26 09:33:26;;;;;;;13.77;10.23;;;;;;;30.02;35.07;95105.03;5069962;28;20024;-83
2022/07/26 09:36:05;;;;;;;14.63;10.52;;;;;;;30.02;35.14;95096.75;5050014;28;20089;-81
2022/07/26 09:38:42;;;;;;;16.80;11.18;;;;;;;29.76;35.44;95098.09;5069277;28;20028;-81
2022/07/26 09:41:25;;;;;;;12.77;9.98;;;;;;;29.83;36.69;95097.69;5068251;28;20092;-83
2022/07/26 09:43:51;;;;;;;13.13;10.77;;;;;;;29.54;37.19;95087.75;5068113;28;20031;-82
2022/07/26 09:46:16;;;;;;;11.88;10.35;;;;;;;29.57;37.74;95096.25;5087193;28;20020;-81
2022/07/26 09:48:42;;;;;;;11.85;10.65;;;;;;;29.33;36.46;95096.47;5067445;28;20032;-82
2022/07/26 09:51:07;;;;;;;14.27;10.40;;;;;;;29.47;36.07;95083.47;5069361;28;20085;-82
2022/07/26 09:53:53;;;;;;;10.32;9.13;;;;;;;29.15;34.09;95090.72;5067443;28;20024;-83
2022/07/26 09:56:18;;;;;;;11.00;9.25;;;;;;;29.03;34.80;95088.47;5086011;28;20096;-81
2022/07/26 09:58:44;;;;;;;10.60;8.30;;;;;;;29.62;31.48;95081.56;5068478;28;20451;-81
2022/07/26 10:01:09;;;;;;;11.43;8.50;;;;;;;29.83;32.13;95081.94;5050631;28;20063;-81
2022/07/26 10:03:35;;;;;;;11.27;9.32;;;;;;;29.54;32.96;95080.31;5068641;28;20032;-82
2022/07/26 10:06:01;;;;;;;11.95;9.15;;;;;;;29.43;33.16;95079.72;5066971;28;20020;-81
2022/07/26 10:08:26;;;;;;;10.90;8.93;;;;;;;29.65;32.95;95072.66;5052452;28;20082;-81
2022/07/26 10:10:58;;;;;;;13.73;9.50;;;;;;;29.85;34.00;95071.41;5067051;28;20440;-81
2022/07/26 10:13:25;;;;;;;10.70;9.13;;;;;;;29.58;34.05;95069.50;5087104;28;20024;-81
2022/07/26 10:15:50;;;;;;;11.60;9.52;;;;;;;29.82;33.89;95071.19;5050955;28;20028;-82
2022/07/26 10:18:34;;;;;;;10.43;9.32;;;;;;;29.67;33.98;95066.81;5086327;28;20024;-83
2022/07/26 10:21:00;;;;;;;10.40;9.23;;;;;;;29.66;33.85;95065.19;5086678;28;20032;-82
2022/07/26 10:23:32;;;;;;;13.13;10.38;;;;;;;29.54;33.46;95060.13;5049927;28;20036;-80
2022/07/26 10:25:58;;;;;;;12.02;10.30;;;;;;;29.10;34.31;95055.75;5086486;28;20036;-83
2022/07/26 10:28:28;;;;;;;13.63;10.80;;;;;;;29.39;33.72;95045.53;5050387;28;20098;-81
2022/07/26 10:31:22;;;;;;;12.43;10.05;;;;;;;29.54;34.55;95052.69;5085927;28;20398;-82
2022/07/26 10:33:48;;;;;;;10.73;9.65;;;;;;;29.60;34.65;95048.72;5068129;28;20043;-82
2022/07/26 10:36:32;;;;;;;11.25;9.82;;;;;;;29.46;34.20;95042.34;5049816;28;20024;-81
2022/07/26 10:38:59;;;;;;;11.35;10.15;;;;;;;29.24;34.27;95033.66;5086230;28;20502;-82
2022/07/26 10:41:35;;;;;;;11.18;9.85;;;;;;;29.11;34.71;95028.97;5050122;28;20501;-81
2022/07/26 10:44:17;;;;;;;11.80;10.60;;;;;;;29.33;35.16;95039.31;5050966;28;20494;-82
2022/07/26 10:47:19;;;;;;;12.00;10.90;;;;;;;29.45;34.18;95035.22;5086114;28;20051;-81
2022/07/26 10:49:57;;;;;;;11.45;10.35;;;;;;;29.73;32.30;95040.69;5066431;28;20476;-82
2022/07/26 10:52:28;;;;;;;11.90;9.00;;;;;;;29.83;31.35;95025.84;5067450;28;20435;-82
2022/07/26 10:55:00;;;;;;;14.75;10.43;;;;;;;29.45;33.11;95024.97;5050685;28;20107;-81
2022/07/26 10:57:30;;;;;;;11.23;10.10;;;;;;;29.60;32.80;95023.84;5066544;28;20035;-82
2022/07/26 10:59:56;;;;;;;11.23;9.95;;;;;;;29.49;32.13;95028.75;5067644;28;20036;-81
2022/07/26 11:02:23;;;;;;;11.48;9.52;;;;;;;29.83;32.40;95012.84;5065954;28;20024;-82
2022/07/26 11:04:48;;;;;;;12.63;9.77;;;;;;;29.93;32.11;95013.75;5067993;28;20433;-81
2022/07/26 11:07:14;;;;;;;14.40;12.93;;;;;;;29.96;32.51;95013.13;5049685;28;20494;-81
2022/07/26 11:09:39;;;;;;;9.70;8.68;;;;;;;29.97;30.27;95006.47;5067341;28;20065;-82
2022/07/26 11:12:17;;;;;;;9.25;8.35;;;;;;;30.17;30.28;95001.56;5050537;28;20038;-82
2022/07/26 11:14:43;;;;;;;10.65;9.27;;;;;;;30.38;29.78;95003.84;5049730;28;20134;-82
2022/07/26 11:17:21;;;;;;;10.43;8.70;;;;;;;30.44;29.33;94995.09;5050758;28;20077;-82